Terminal Aerodrome Forecast
Issued by NWS

Home | Current Version | Previous Version | Graphics & Text | Print | Product List | Glossary On
Versions: 1 2 3 4 5 6 7 8 9 10 11 12 13 14 15 16 17 18
000
FTUS43 KABR 312320
TAFMBG
TAF
KMBG 312320Z 0100/0124 31011KT P6SM SKC
     FM010300 07006KT P6SM SKC
     FM010900 13005KT P6SM SCT100
     FM011800 20008KT P6SM SKC=

USA.gov is the U.S. government's official web portal to all federal, state and local government web resources and services.